createdAt,value
2023-05-14T00:00:42.056Z,6.30
2023-05-14T00:01:42.097Z,7.10
2023-05-14T00:02:42.111Z,5.90
2023-05-14T00:03:42.376Z,5.20
2023-05-14T00:04:42.053Z,4.70
2023-05-14T00:05:42.012Z,5.40
2023-05-14T00:06:41.978Z,4.70
2023-05-14T00:07:42.013Z,14.50
2023-05-14T00:08:41.954Z,5.00
2023-05-14T00:09:41.958Z,5.40
2023-05-14T00:10:42.225Z,3.60
2023-05-14T00:11:41.931Z,5.80
2023-05-14T00:12:41.924Z,5.40
2023-05-14T00:13:41.949Z,6.20
2023-05-14T00:14:41.886Z,5.20
2023-05-14T00:15:41.931Z,5.00
2023-05-14T00:16:41.893Z,5.30
2023-05-14T00:17:42.203Z,4.20
2023-05-14T00:18:41.879Z,4.90
2023-05-14T00:19:41.918Z,4.50
2023-05-14T00:20:45.160Z,3.80
2023-05-14T00:21:41.827Z,6.10
2023-05-14T00:22:41.821Z,4.00
2023-05-14T00:23:41.805Z,5.00
2023-05-14T00:24:42.077Z,4.90
2023-05-14T00:25:41.824Z,9.90
2023-05-14T00:26:41.856Z,7.00
2023-05-14T00:27:41.758Z,4.60
2023-05-14T00:28:41.758Z,2.90
2023-05-14T00:29:41.741Z,7.20
2023-05-14T00:30:41.745Z,5.00
2023-05-14T00:31:42.104Z,8.40
2023-05-14T00:32:41.742Z,5.10
2023-05-14T00:33:41.683Z,4.60
2023-05-14T00:34:41.694Z,6.30
2023-05-14T00:35:41.695Z,6.60
2023-05-14T00:36:41.655Z,8.50
2023-05-14T00:37:41.705Z,4.60
2023-05-14T00:38:41.937Z,5.40
2023-05-14T00:39:41.626Z,6.20
2023-05-14T00:40:41.614Z,4.70
2023-05-14T00:41:41.642Z,3.90
2023-05-14T00:42:41.602Z,5.50
2023-05-14T00:43:41.646Z,3.90
2023-05-14T00:44:41.605Z,6.80
2023-05-14T00:45:41.834Z,5.30
2023-05-14T00:46:41.544Z,5.50
2023-05-14T00:47:41.685Z,7.90
2023-05-14T00:48:41.571Z,4.60
2023-05-14T00:49:41.556Z,5.00
2023-05-14T00:50:41.515Z,5.00
2023-05-14T00:51:41.555Z,5.20
2023-05-14T00:52:41.774Z,5.20
2023-05-14T00:53:41.498Z,4.30
2023-05-14T00:54:41.497Z,5.70
2023-05-14T00:55:41.528Z,6.30
2023-05-14T00:56:41.443Z,6.10
2023-05-14T00:57:41.455Z,7.70
2023-05-14T00:58:41.473Z,6.70
2023-05-14T00:59:41.705Z,6.20
2023-05-14T01:00:41.415Z,8.00
2023-05-14T01:01:41.453Z,6.00
2023-05-14T01:02:41.437Z,5.60
2023-05-14T01:03:41.505Z,9.40
2023-05-14T01:04:41.373Z,7.20
2023-05-14T01:05:41.359Z,4.70
2023-05-14T01:06:41.605Z,6.90
2023-05-14T01:07:41.420Z,4.40
2023-05-14T01:08:41.319Z,5.90
2023-05-14T01:09:41.327Z,5.30
2023-05-14T01:10:41.313Z,7.30
2023-05-14T01:11:41.288Z,4.50
2023-05-14T01:12:41.294Z,6.30
2023-05-14T01:13:41.628Z,6.50
2023-05-14T01:14:41.260Z,4.40
2023-05-14T01:15:41.250Z,15.00
2023-05-14T01:16:41.257Z,5.50
2023-05-14T01:17:41.239Z,6.20
2023-05-14T01:18:41.233Z,7.40
2023-05-14T01:19:41.239Z,5.30
2023-05-14T01:20:42.202Z,6.40
2023-05-14T01:21:41.179Z,7.00
2023-05-14T01:22:41.157Z,7.10
2023-05-14T01:23:41.222Z,4.00
2023-05-14T01:24:41.150Z,5.60
2023-05-14T01:25:41.211Z,5.70
2023-05-14T01:26:41.120Z,6.40
2023-05-14T01:27:41.412Z,8.00
2023-05-14T01:28:41.112Z,6.40
2023-05-14T01:29:41.090Z,5.10
2023-05-14T01:30:41.058Z,6.00
2023-05-14T01:31:41.211Z,6.10
2023-05-14T01:32:41.624Z,8.00
2023-05-14T01:33:41.069Z,7.10
2023-05-14T01:34:41.355Z,9.60
2023-05-14T01:35:41.056Z,8.20
2023-05-14T01:36:41.023Z,5.10
2023-05-14T01:37:41.042Z,4.80
2023-05-14T01:38:40.998Z,8.60
2023-05-14T01:39:40.978Z,4.60
2023-05-14T01:40:40.966Z,3.80
2023-05-14T01:41:41.238Z,6.70
2023-05-14T01:42:40.950Z,6.60
2023-05-14T01:43:40.972Z,5.30
2023-05-14T01:44:40.926Z,5.80
2023-05-14T01:45:40.938Z,6.20
2023-05-14T01:46:41.109Z,5.80
2023-05-14T01:47:40.921Z,6.50
2023-05-14T01:48:41.155Z,6.40
2023-05-14T01:49:40.940Z,7.60
2023-05-14T01:50:40.871Z,4.70
2023-05-14T01:51:40.847Z,5.10
2023-05-14T01:52:40.844Z,4.80
2023-05-14T01:53:40.897Z,6.40
2023-05-14T01:54:40.823Z,7.40
2023-05-14T01:55:41.115Z,4.80
2023-05-14T01:56:40.803Z,5.50
2023-05-14T01:57:40.798Z,6.30
2023-05-14T01:58:40.767Z,5.10
2023-05-14T01:59:40.777Z,6.50
2023-05-14T02:00:40.739Z,5.10
2023-05-14T02:01:41.683Z,5.80
2023-05-14T02:02:41.096Z,10.70
2023-05-14T02:03:40.804Z,6.60
2023-05-14T02:04:40.722Z,4.60
2023-05-14T02:05:40.708Z,5.60
2023-05-14T02:06:40.682Z,5.80
2023-05-14T02:07:40.767Z,13.70
2023-05-14T02:08:40.667Z,7.30
2023-05-14T02:09:40.985Z,4.80
2023-05-14T02:10:40.649Z,7.40
2023-05-14T02:11:40.625Z,8.80
2023-05-14T02:12:40.660Z,4.80
2023-05-14T02:13:40.676Z,6.30
2023-05-14T02:14:40.633Z,5.50
2023-05-14T02:15:40.638Z,6.20
2023-05-14T02:16:40.859Z,6.70
2023-05-14T02:17:40.593Z,5.50
2023-05-14T02:18:40.590Z,7.30
2023-05-14T02:19:40.591Z,6.10
2023-05-14T02:20:40.546Z,6.60
2023-05-14T02:21:40.542Z,6.00
2023-05-14T02:22:40.520Z,5.40
2023-05-14T02:23:42.215Z,6.60
2023-05-14T02:24:40.494Z,5.50
2023-05-14T02:25:40.549Z,6.70
2023-05-14T02:26:40.482Z,5.90
2023-05-14T02:27:40.486Z,5.50
2023-05-14T02:28:40.459Z,7.90
2023-05-14T02:29:40.438Z,4.30
2023-05-14T02:30:40.704Z,7.60
2023-05-14T02:31:40.525Z,6.70
2023-05-14T02:32:40.498Z,5.70
2023-05-14T02:33:40.469Z,5.70
2023-05-14T02:34:40.380Z,7.60
2023-05-14T02:35:40.374Z,7.40
2023-05-14T02:36:40.367Z,6.10
2023-05-14T02:37:40.704Z,5.40
2023-05-14T02:38:40.355Z,7.80
2023-05-14T02:39:40.345Z,5.40
2023-05-14T02:40:40.337Z,6.60
2023-05-14T02:41:40.309Z,4.90
2023-05-14T02:42:40.310Z,7.30
2023-05-14T02:43:40.332Z,6.30
2023-05-14T02:44:40.626Z,5.40
2023-05-14T02:45:40.287Z,6.10
2023-05-14T02:46:40.359Z,6.40
2023-05-14T02:47:40.258Z,11.80
2023-05-14T02:48:40.258Z,5.30
2023-05-14T02:49:40.258Z,6.00
2023-05-14T02:50:40.223Z,5.70
2023-05-14T02:51:40.504Z,4.50
2023-05-14T02:52:40.202Z,7.10
2023-05-14T02:53:40.188Z,6.00
2023-05-14T02:54:40.186Z,6.40
2023-05-14T02:55:40.209Z,4.70
2023-05-14T02:56:40.185Z,7.70
2023-05-14T02:57:40.138Z,7.20
2023-05-14T02:58:40.156Z,6.80
2023-05-14T02:59:40.140Z,5.30
2023-05-14T03:00:40.136Z,5.90
2023-05-14T03:01:40.169Z,7.70
2023-05-14T03:02:40.275Z,5.40
2023-05-14T03:03:40.403Z,6.40
2023-05-14T03:04:40.091Z,9.20
2023-05-14T03:05:40.064Z,5.60
2023-05-14T03:06:40.068Z,4.70
2023-05-14T03:07:40.082Z,5.00
2023-05-14T03:08:40.033Z,7.40
2023-05-14T03:09:40.022Z,5.80
2023-05-14T03:10:40.021Z,6.00
2023-05-14T03:11:40.015Z,9.40
2023-05-14T03:12:39.986Z,9.90
2023-05-14T03:13:40.005Z,6.00
2023-05-14T03:14:39.973Z,7.50
2023-05-14T03:15:40.288Z,5.60
2023-05-14T03:16:40.005Z,7.40
2023-05-14T03:17:39.965Z,6.20
2023-05-14T03:18:39.954Z,6.80
2023-05-14T03:19:39.956Z,6.80
2023-05-14T03:20:39.900Z,5.80
2023-05-14T03:21:39.889Z,5.70
2023-05-14T03:22:40.158Z,5.50
2023-05-14T03:23:39.872Z,9.20
2023-05-14T03:24:39.893Z,6.30
2023-05-14T03:25:39.887Z,7.00
2023-05-14T03:26:39.863Z,5.60
2023-05-14T03:27:39.821Z,7.20
2023-05-14T03:28:39.855Z,5.10
2023-05-14T03:29:40.094Z,7.60
2023-05-14T03:30:39.836Z,5.70
2023-05-14T03:31:39.819Z,5.10
2023-05-14T03:32:39.802Z,4.40
2023-05-14T03:33:39.815Z,6.20
2023-05-14T03:34:39.778Z,12.00
2023-05-14T03:35:39.760Z,6.00
2023-05-14T03:36:40.018Z,17.20
2023-05-14T03:37:39.793Z,5.00
2023-05-14T03:38:39.732Z,5.70
2023-05-14T03:39:39.688Z,5.80
2023-05-14T03:40:39.686Z,7.20
2023-05-14T03:41:39.668Z,5.30
2023-05-14T03:42:39.665Z,5.40
2023-05-14T03:43:39.991Z,6.40
2023-05-14T03:44:39.679Z,5.10
2023-05-14T03:45:39.639Z,7.40
2023-05-14T03:46:39.636Z,5.60
2023-05-14T03:47:39.704Z,7.80
2023-05-14T03:48:39.624Z,6.00
2023-05-14T03:49:39.664Z,4.50
2023-05-14T03:50:39.860Z,5.60
2023-05-14T03:51:39.567Z,7.40
2023-05-14T03:52:39.618Z,6.60
2023-05-14T03:53:39.553Z,7.00
2023-05-14T03:54:39.537Z,9.60
2023-05-14T03:55:39.562Z,6.40
2023-05-14T03:56:39.562Z,9.30
2023-05-14T03:57:39.825Z,5.10
2023-05-14T03:58:39.495Z,7.30
2023-05-14T03:59:39.494Z,6.70
2023-05-14T04:00:39.468Z,5.50
2023-05-14T04:01:39.499Z,6.40
2023-05-14T04:02:39.630Z,5.80
2023-05-14T04:03:39.595Z,7.00
2023-05-14T04:04:39.798Z,4.50
2023-05-14T04:05:39.427Z,6.60
2023-05-14T04:06:39.421Z,7.80
2023-05-14T04:07:39.700Z,7.60
2023-05-14T04:08:39.412Z,5.30
2023-05-14T04:09:39.380Z,6.20
2023-05-14T04:10:39.406Z,5.30
2023-05-14T04:11:39.373Z,7.10
2023-05-14T04:12:39.350Z,5.80
2023-05-14T04:13:39.366Z,8.80
2023-05-14T04:14:39.321Z,8.30
2023-05-14T04:15:39.483Z,6.40
2023-05-14T04:16:39.353Z,6.00
2023-05-14T04:17:39.596Z,9.20
2023-05-14T04:18:39.352Z,6.00
2023-05-14T04:19:39.363Z,5.10
2023-05-14T04:20:39.284Z,5.90
2023-05-14T04:21:39.264Z,6.00
2023-05-14T04:22:39.258Z,6.20
2023-05-14T04:23:39.231Z,5.90
2023-05-14T04:24:39.537Z,7.40
2023-05-14T04:25:39.266Z,8.20
2023-05-14T04:26:39.213Z,6.80
2023-05-14T04:27:39.181Z,7.40
2023-05-14T04:28:39.182Z,6.60
2023-05-14T04:29:39.170Z,10.30
2023-05-14T04:30:39.161Z,9.50
2023-05-14T04:31:39.527Z,5.60
2023-05-14T04:32:39.194Z,8.50
2023-05-14T04:33:39.142Z,6.50
2023-05-14T04:34:39.113Z,6.30
2023-05-14T04:35:39.119Z,9.10
2023-05-14T04:36:39.109Z,8.80
2023-05-14T04:37:39.165Z,6.40
2023-05-14T04:38:39.404Z,6.40
2023-05-14T04:39:39.079Z,7.30
2023-05-14T04:40:39.058Z,6.30
2023-05-14T04:41:39.038Z,9.00
2023-05-14T04:42:39.028Z,6.20
2023-05-14T04:43:39.060Z,7.50
2023-05-14T04:44:39.032Z,6.80
2023-05-14T04:45:39.318Z,9.40
2023-05-14T04:46:39.024Z,8.00
2023-05-14T04:47:38.995Z,5.80
2023-05-14T04:48:38.976Z,5.70
2023-05-14T04:49:39.005Z,7.40
2023-05-14T04:50:38.934Z,7.70
2023-05-14T04:51:38.964Z,6.60
2023-05-14T04:52:39.213Z,8.50
2023-05-14T04:53:38.911Z,7.50
2023-05-14T04:54:38.924Z,7.10
2023-05-14T04:55:38.924Z,5.50
2023-05-14T04:56:38.889Z,6.60
2023-05-14T04:57:38.873Z,6.40
2023-05-14T04:58:38.867Z,7.00
2023-05-14T04:59:39.138Z,7.90
2023-05-14T05:00:38.853Z,8.00
2023-05-14T05:01:38.912Z,7.70
2023-05-14T05:02:38.843Z,5.70
2023-05-14T05:03:45.655Z,6.10
2023-05-14T05:04:38.789Z,6.30
2023-05-14T05:05:38.790Z,7.80
2023-05-14T05:06:39.056Z,7.50
2023-05-14T05:07:38.818Z,7.20
2023-05-14T05:08:38.761Z,8.30
2023-05-14T05:09:38.752Z,7.10
2023-05-14T05:10:38.754Z,5.60
2023-05-14T05:11:38.720Z,7.10
2023-05-14T05:12:38.722Z,7.40
2023-05-14T05:13:39.067Z,6.60
2023-05-14T05:14:38.699Z,5.70
2023-05-14T05:15:38.716Z,5.50
2023-05-14T05:16:38.685Z,6.80
2023-05-14T05:17:38.685Z,9.00
2023-05-14T05:18:38.729Z,8.90
2023-05-14T05:19:43.888Z,7.30
2023-05-14T05:20:38.638Z,5.50
2023-05-14T05:21:38.640Z,5.10
2023-05-14T05:22:38.624Z,5.90
2023-05-14T05:23:38.686Z,9.60
2023-05-14T05:24:38.611Z,7.90
2023-05-14T05:25:38.684Z,8.10
2023-05-14T05:26:38.862Z,5.90
2023-05-14T05:27:38.557Z,6.40
2023-05-14T05:28:38.551Z,5.90
2023-05-14T05:29:38.530Z,6.60
2023-05-14T05:30:38.536Z,4.20
2023-05-14T05:31:38.553Z,9.70
2023-05-14T05:32:38.592Z,5.10
2023-05-14T05:33:38.510Z,4.90
2023-05-14T05:34:38.532Z,5.60
2023-05-14T05:35:38.485Z,6.20
2023-05-14T05:36:38.463Z,5.20
2023-05-14T05:37:38.492Z,13.60
2023-05-14T05:38:38.436Z,5.40
2023-05-14T05:39:38.435Z,7.00
2023-05-14T05:40:38.417Z,8.10
2023-05-14T05:41:38.406Z,4.70
2023-05-14T05:42:38.403Z,6.30
2023-05-14T05:43:38.436Z,6.60
2023-05-14T05:44:38.669Z,5.40
2023-05-14T05:45:38.373Z,4.90
2023-05-14T05:46:38.410Z,8.00
2023-05-14T05:47:38.375Z,6.90
2023-05-14T05:48:38.368Z,4.30
2023-05-14T05:49:38.376Z,5.50
2023-05-14T05:50:38.312Z,9.40
2023-05-14T05:51:38.614Z,6.00
2023-05-14T05:52:38.294Z,6.10
2023-05-14T05:53:38.286Z,6.30
2023-05-14T05:54:38.271Z,8.10
2023-05-14T05:55:38.309Z,7.20
2023-05-14T05:56:38.288Z,6.70
2023-05-14T05:57:38.247Z,7.00
2023-05-14T05:58:38.582Z,5.40
2023-05-14T05:59:38.231Z,4.70
2023-05-14T06:00:38.210Z,6.70
2023-05-14T06:01:38.253Z,4.70
2023-05-14T06:02:38.301Z,5.60
2023-05-14T06:03:38.176Z,5.30
2023-05-14T06:04:38.200Z,4.70
2023-05-14T06:05:38.522Z,5.00
2023-05-14T06:06:38.165Z,7.10
2023-05-14T06:07:38.190Z,6.90
2023-05-14T06:08:38.131Z,3.80
2023-05-14T06:09:38.123Z,8.00
2023-05-14T06:10:38.114Z,3.70
2023-05-14T06:11:38.098Z,4.30
2023-05-14T06:12:38.385Z,4.00
2023-05-14T06:13:38.178Z,6.30
2023-05-14T06:14:38.065Z,7.90
2023-05-14T06:15:38.081Z,4.70
2023-05-14T06:16:38.112Z,11.60
2023-05-14T06:17:38.152Z,4.10
2023-05-14T06:18:38.119Z,4.90
2023-05-14T06:19:38.326Z,4.10
2023-05-14T06:20:38.023Z,4.20
2023-05-14T06:21:38.000Z,4.10
2023-05-14T06:22:37.972Z,4.30
2023-05-14T06:23:37.975Z,3.60
2023-05-14T06:24:37.994Z,3.70
2023-05-14T06:25:37.996Z,4.20
2023-05-14T06:26:38.219Z,4.60
2023-05-14T06:27:37.953Z,3.40
2023-05-14T06:28:37.920Z,3.70
2023-05-14T06:29:37.915Z,4.10
2023-05-14T06:30:37.894Z,3.90
2023-05-14T06:31:38.031Z,4.00
2023-05-14T06:32:37.906Z,12.90
2023-05-14T06:33:38.158Z,3.00
2023-05-14T06:34:40.666Z,3.90
2023-05-14T06:35:37.868Z,3.40
2023-05-14T06:36:37.854Z,4.10
2023-05-14T06:37:37.873Z,3.60
2023-05-14T06:38:37.844Z,3.00
2023-05-14T06:39:37.806Z,4.00
2023-05-14T06:40:38.123Z,2.60
2023-05-14T06:41:37.793Z,2.70
2023-05-14T06:42:37.777Z,4.30
2023-05-14T06:43:37.852Z,3.80
2023-05-14T06:44:39.649Z,4.20
2023-05-14T06:45:37.767Z,5.20
2023-05-14T06:46:37.745Z,3.20
2023-05-14T06:47:38.004Z,2.60
2023-05-14T06:48:37.759Z,2.40
2023-05-14T06:49:37.795Z,2.80
2023-05-14T06:50:37.680Z,2.80
2023-05-14T06:51:37.697Z,3.30
2023-05-14T06:52:37.675Z,2.80
2023-05-14T06:53:37.671Z,3.20
2023-05-14T06:54:37.963Z,2.60
2023-05-14T06:55:38.155Z,2.90
2023-05-14T06:56:37.615Z,2.50
2023-05-14T06:57:39.846Z,3.10
2023-05-14T06:58:37.624Z,2.20
2023-05-14T06:59:37.590Z,3.10
2023-05-14T07:00:37.630Z,3.00
2023-05-14T07:01:37.971Z,3.10
2023-05-14T07:02:37.661Z,3.90
2023-05-14T07:03:37.557Z,3.30
2023-05-14T07:04:37.592Z,3.60
2023-05-14T07:05:37.541Z,2.90
2023-05-14T07:06:37.625Z,2.30
2023-05-14T07:07:37.569Z,2.50
2023-05-14T07:08:37.772Z,2.10
2023-05-14T07:09:37.540Z,2.80
2023-05-14T07:10:37.491Z,2.30
2023-05-14T07:11:37.533Z,4.80
2023-05-14T07:12:37.507Z,2.80
2023-05-14T07:13:37.580Z,3.10
2023-05-14T07:14:37.440Z,5.20
2023-05-14T07:15:37.445Z,1.90
2023-05-14T07:16:37.451Z,1.90
2023-05-14T07:17:37.424Z,2.60
2023-05-14T07:18:37.435Z,4.80
2023-05-14T07:19:37.495Z,3.50
2023-05-14T07:20:37.407Z,3.80
2023-05-14T07:21:37.373Z,3.10
2023-05-14T07:22:37.359Z,2.50
2023-05-14T07:23:37.363Z,4.00
2023-05-14T07:24:37.605Z,2.00
2023-05-14T07:25:37.410Z,3.00
2023-05-14T07:26:37.323Z,1.90
2023-05-14T07:27:37.307Z,2.70
2023-05-14T07:28:37.281Z,2.90
2023-05-14T07:29:37.318Z,1.90
2023-05-14T07:30:37.280Z,3.10
2023-05-14T07:31:37.367Z,4.40
2023-05-14T07:32:37.300Z,2.70
2023-05-14T07:33:37.262Z,1.70
2023-05-14T07:34:37.274Z,3.60
2023-05-14T07:35:37.243Z,1.90
2023-05-14T07:36:37.526Z,3.00
2023-05-14T07:37:37.293Z,2.00
2023-05-14T07:38:37.282Z,2.30
2023-05-14T07:39:37.220Z,1.90
2023-05-14T07:40:37.252Z,7.30
2023-05-14T07:41:37.174Z,3.20
2023-05-14T07:42:37.601Z,1.80
2023-05-14T07:43:37.493Z,2.70
2023-05-14T07:44:37.160Z,1.40
2023-05-14T07:45:37.124Z,1.90
2023-05-14T07:46:37.101Z,1.90
2023-05-14T07:47:37.188Z,1.30
2023-05-14T07:48:37.201Z,1.70
2023-05-14T07:49:37.125Z,3.40
2023-05-14T07:50:37.355Z,2.20
2023-05-14T07:51:37.080Z,2.40
2023-05-14T07:52:37.047Z,2.10
2023-05-14T07:53:37.066Z,2.70
2023-05-14T07:54:37.072Z,2.40
2023-05-14T07:55:37.103Z,1.60
2023-05-14T07:56:37.026Z,1.70
2023-05-14T07:57:37.288Z,2.00
2023-05-14T07:58:37.021Z,2.70
2023-05-14T07:59:37.029Z,1.60
2023-05-14T08:00:37.021Z,3.50
2023-05-14T08:01:39.162Z,1.90
2023-05-14T08:02:37.040Z,1.90
2023-05-14T08:03:37.110Z,1.90
2023-05-14T08:04:37.291Z,2.10
2023-05-14T08:05:36.919Z,2.60
2023-05-14T08:06:36.933Z,2.00
2023-05-14T08:07:36.957Z,1.60
2023-05-14T08:08:36.910Z,2.30
2023-05-14T08:09:36.865Z,2.00
2023-05-14T08:10:36.886Z,3.00
2023-05-14T08:11:37.154Z,2.00
2023-05-14T08:12:36.903Z,2.70
2023-05-14T08:13:36.880Z,2.30
2023-05-14T08:14:36.922Z,1.40
2023-05-14T08:15:36.852Z,2.70
2023-05-14T08:16:36.824Z,1.40
2023-05-14T08:17:36.798Z,1.80
2023-05-14T08:18:36.783Z,2.30
2023-05-14T08:19:36.800Z,1.40
2023-05-14T08:20:36.794Z,2.10
2023-05-14T08:21:36.776Z,3.00
2023-05-14T08:22:36.739Z,1.80
2023-05-14T08:23:36.738Z,1.80
2023-05-14T08:24:37.024Z,1.40
2023-05-14T08:25:36.839Z,2.70
2023-05-14T08:26:36.724Z,2.30
2023-05-14T08:27:36.771Z,1.40
2023-05-14T08:28:36.689Z,2.40
2023-05-14T08:29:36.680Z,1.00
2023-05-14T08:30:36.732Z,2.20
2023-05-14T08:31:36.946Z,1.40
2023-05-14T08:32:36.648Z,1.40
2023-05-14T08:33:36.724Z,1.70
2023-05-14T08:34:36.652Z,1.50
2023-05-14T08:35:36.675Z,2.00
2023-05-14T08:36:36.608Z,3.80
2023-05-14T08:37:36.715Z,1.50
2023-05-14T08:38:36.868Z,1.80
2023-05-14T08:39:36.592Z,2.10
2023-05-14T08:40:36.592Z,1.40
2023-05-14T08:41:36.559Z,1.80
2023-05-14T08:42:36.546Z,1.40
2023-05-14T08:43:36.598Z,4.20
2023-05-14T08:44:36.514Z,1.60
2023-05-14T08:45:36.781Z,2.40
2023-05-14T08:46:36.526Z,1.80
2023-05-14T08:47:36.510Z,3.00
2023-05-14T08:48:36.501Z,1.50
2023-05-14T08:49:36.547Z,1.80
2023-05-14T08:50:36.465Z,1.60
2023-05-14T08:51:36.432Z,1.80
2023-05-14T08:52:36.729Z,1.50
2023-05-14T08:53:36.426Z,2.20
2023-05-14T08:54:36.444Z,1.30
2023-05-14T08:55:36.481Z,1.60
2023-05-14T08:56:36.464Z,2.30
2023-05-14T08:57:36.407Z,2.00
2023-05-14T08:58:36.386Z,1.20
2023-05-14T08:59:36.697Z,1.50
2023-05-14T09:00:36.373Z,2.30
2023-05-14T09:01:36.448Z,7.50
2023-05-14T09:02:36.370Z,1.40
2023-05-14T09:03:36.466Z,1.30
2023-05-14T09:04:36.310Z,1.50
2023-05-14T09:05:36.323Z,1.80
2023-05-14T09:06:36.566Z,1.30
2023-05-14T09:07:36.406Z,1.30
2023-05-14T09:08:36.360Z,4.90
2023-05-14T09:09:36.288Z,1.10
2023-05-14T09:10:36.291Z,1.70
2023-05-14T09:11:36.353Z,3.50
2023-05-14T09:12:36.273Z,1.00
2023-05-14T09:13:36.618Z,1.20
2023-05-14T09:14:36.366Z,1.30
2023-05-14T09:15:36.286Z,1.30
2023-05-14T09:16:36.365Z,2.60
2023-05-14T09:17:36.325Z,1.40
2023-05-14T09:18:36.283Z,1.90
2023-05-14T09:19:36.267Z,1.00
2023-05-14T09:20:36.447Z,1.80
2023-05-14T09:21:36.234Z,1.60
2023-05-14T09:22:36.208Z,5.40
2023-05-14T09:23:36.160Z,1.70
2023-05-14T09:24:36.104Z,2.30
2023-05-14T09:25:36.360Z,1.30
2023-05-14T09:26:36.210Z,1.20
2023-05-14T09:27:36.346Z,0.90
2023-05-14T09:28:36.141Z,1.00
2023-05-14T09:29:36.201Z,2.60
2023-05-14T09:30:36.113Z,1.60
2023-05-14T09:31:36.193Z,1.10
2023-05-14T09:32:36.108Z,1.30
2023-05-14T09:33:36.153Z,1.40
2023-05-14T09:34:36.349Z,6.40
2023-05-14T09:35:36.036Z,1.30
2023-05-14T09:36:36.011Z,1.10
2023-05-14T09:37:36.061Z,1.40
2023-05-14T09:38:35.966Z,1.40
2023-05-14T09:39:35.960Z,1.40
2023-05-14T09:40:35.966Z,1.50
2023-05-14T09:41:36.258Z,1.80
2023-05-14T09:42:36.047Z,1.40
2023-05-14T09:43:36.098Z,1.60
2023-05-14T09:44:35.925Z,1.10
2023-05-14T09:45:35.916Z,3.20
2023-05-14T09:46:35.920Z,2.50
2023-05-14T09:47:35.998Z,1.30
2023-05-14T09:48:36.278Z,0.70
2023-05-14T09:49:35.929Z,3.40
2023-05-14T09:50:36.015Z,1.10
2023-05-14T09:51:35.860Z,1.80
2023-05-14T09:52:35.847Z,1.10
2023-05-14T09:53:35.906Z,1.00
2023-05-14T09:54:36.855Z,0.90
2023-05-14T09:55:36.147Z,1.50
2023-05-14T09:56:35.906Z,1.20
2023-05-14T09:57:35.864Z,1.20
2023-05-14T09:58:35.844Z,1.00
2023-05-14T09:59:35.846Z,1.80
2023-05-14T10:00:35.816Z,0.90
2023-05-14T10:01:35.967Z,1.70
2023-05-14T10:02:36.142Z,1.30
2023-05-14T10:03:35.853Z,1.20
2023-05-14T10:04:35.821Z,1.10
2023-05-14T10:05:35.764Z,1.90
2023-05-14T10:06:35.782Z,2.00
2023-05-14T10:07:35.774Z,1.00
2023-05-14T10:08:35.738Z,1.10
2023-05-14T10:09:36.245Z,0.90
2023-05-14T10:10:35.716Z,1.80
2023-05-14T10:11:35.684Z,1.60
2023-05-14T10:12:35.642Z,1.90
2023-05-14T10:13:35.812Z,1.20
2023-05-14T10:14:35.723Z,1.40
2023-05-14T10:15:35.684Z,1.70
2023-05-14T10:16:36.031Z,6.60
2023-05-14T10:17:35.826Z,4.80
2023-05-14T10:18:35.639Z,1.90
2023-05-14T10:19:35.646Z,1.40
2023-05-14T10:20:35.631Z,2.20
2023-05-14T10:21:35.561Z,1.60
2023-05-14T10:22:35.579Z,6.10
2023-05-14T10:23:35.829Z,0.90
2023-05-14T10:24:35.524Z,1.40
2023-05-14T10:25:35.588Z,0.80
2023-05-14T10:26:36.557Z,1.70
2023-05-14T10:27:35.564Z,1.50
2023-05-14T10:28:35.556Z,1.20
2023-05-14T10:29:35.557Z,2.30
2023-05-14T10:30:35.790Z,1.40
2023-05-14T10:31:35.734Z,1.50
2023-05-14T10:32:35.466Z,4.10
2023-05-14T10:33:35.426Z,7.50
2023-05-14T10:34:35.453Z,2.00
2023-05-14T10:35:35.557Z,3.00
2023-05-14T10:36:35.453Z,2.20
2023-05-14T10:37:35.800Z,1.10
2023-05-14T10:38:35.479Z,1.00
2023-05-14T10:39:35.386Z,1.10
2023-05-14T10:40:35.434Z,1.20
2023-05-14T10:41:35.360Z,1.90
2023-05-14T10:42:35.397Z,1.10
2023-05-14T10:43:35.424Z,2.10
2023-05-14T10:44:35.348Z,1.80
2023-05-14T10:45:35.355Z,1.20
2023-05-14T10:46:35.451Z,3.20
2023-05-14T10:47:35.304Z,2.80
2023-05-14T10:48:35.385Z,1.70
2023-05-14T10:49:43.581Z,1.40
2023-05-14T10:50:35.318Z,1.20
2023-05-14T10:51:35.354Z,2.40
2023-05-14T10:52:35.268Z,1.80
2023-05-14T10:53:35.237Z,1.40
2023-05-14T10:54:35.235Z,1.30
2023-05-14T10:55:35.563Z,4.50
2023-05-14T10:56:35.260Z,14.90
2023-05-14T10:57:35.193Z,4.20
2023-05-14T10:58:35.157Z,1.10
2023-05-14T10:59:35.246Z,1.60
2023-05-14T11:00:35.166Z,1.20
2023-05-14T11:01:35.303Z,1.40
2023-05-14T11:02:35.464Z,1.40
2023-05-14T11:03:35.194Z,1.50
2023-05-14T11:04:35.161Z,0.80
2023-05-14T11:05:35.143Z,1.20
2023-05-14T11:06:35.467Z,1.10
2023-05-14T11:07:35.216Z,1.40
2023-05-14T11:08:35.095Z,1.70
2023-05-14T11:09:35.336Z,1.10
2023-05-14T11:10:35.161Z,1.90
2023-05-14T11:11:35.051Z,1.00
2023-05-14T11:12:35.045Z,1.10
2023-05-14T11:13:35.123Z,1.90
2023-05-14T11:14:35.019Z,1.00
2023-05-14T11:15:35.002Z,2.80
2023-05-14T11:16:35.432Z,2.50
2023-05-14T11:17:35.048Z,1.60
2023-05-14T11:18:35.110Z,1.10
2023-05-14T11:19:35.033Z,5.10
2023-05-14T11:20:34.973Z,1.30
2023-05-14T11:21:35.019Z,3.70
2023-05-14T11:22:35.108Z,1.00
2023-05-14T11:23:35.206Z,2.30
2023-05-14T11:24:35.023Z,2.20
2023-05-14T11:25:35.002Z,3.30
2023-05-14T11:26:34.938Z,1.10
2023-05-14T11:27:34.880Z,1.90
2023-05-14T11:28:35.008Z,1.20
2023-05-14T11:29:35.002Z,2.80
2023-05-14T11:30:35.148Z,3.00
2023-05-14T11:31:34.981Z,1.70
2023-05-14T11:32:34.932Z,1.30
2023-05-14T11:33:34.945Z,2.10
2023-05-14T11:34:34.826Z,3.70
2023-05-14T11:35:34.856Z,1.90
2023-05-14T11:36:34.829Z,4.40
2023-05-14T11:37:35.173Z,2.30
2023-05-14T11:38:34.883Z,4.10
2023-05-14T11:39:34.860Z,6.00
2023-05-14T11:40:34.875Z,1.70
2023-05-14T11:41:34.804Z,2.70
2023-05-14T11:42:34.801Z,2.20
2023-05-14T11:43:35.037Z,2.00
2023-05-14T11:44:35.008Z,2.90
2023-05-14T11:45:34.753Z,4.60
2023-05-14T11:46:34.755Z,2.00
2023-05-14T11:47:34.761Z,2.40
2023-05-14T11:48:34.704Z,1.50
2023-05-14T11:49:34.755Z,2.00
2023-05-14T11:50:34.691Z,1.20
2023-05-14T11:51:35.017Z,1.80
2023-05-14T11:52:34.726Z,1.50
2023-05-14T11:53:34.669Z,1.50
2023-05-14T11:54:34.685Z,3.00
2023-05-14T11:55:34.704Z,3.40
2023-05-14T11:56:34.645Z,1.60
2023-05-14T11:57:34.848Z,1.30
2023-05-14T11:58:35.381Z,1.90
2023-05-14T11:59:34.670Z,1.50
2023-05-14T12:00:34.783Z,3.20
2023-05-14T12:01:34.698Z,2.30
2023-05-14T12:02:34.765Z,1.30
2023-05-14T12:03:34.814Z,2.00
2023-05-14T12:04:34.645Z,1.40
2023-05-14T12:05:34.932Z,4.00
2023-05-14T12:06:34.642Z,1.30
2023-05-14T12:07:34.561Z,2.00
2023-05-14T12:08:34.664Z,2.00
2023-05-14T12:09:34.496Z,2.60
2023-05-14T12:10:34.674Z,1.90
2023-05-14T12:11:34.523Z,1.90
2023-05-14T12:12:34.836Z,1.00
2023-05-14T12:13:34.623Z,0.90
2023-05-14T12:14:34.492Z,2.20
2023-05-14T12:15:34.501Z,1.90
2023-05-14T12:16:38.260Z,1.80
2023-05-14T12:17:34.470Z,2.00
2023-05-14T12:18:34.698Z,1.40
2023-05-14T12:19:34.892Z,1.60
2023-05-14T12:20:34.584Z,4.70
2023-05-14T12:21:34.372Z,2.70
2023-05-14T12:22:36.872Z,2.00
2023-05-14T12:23:34.457Z,3.00
2023-05-14T12:24:34.438Z,1.00
2023-05-14T12:25:34.587Z,2.70
2023-05-14T12:26:34.627Z,1.20
2023-05-14T12:27:34.313Z,4.20
2023-05-14T12:28:37.587Z,2.00
2023-05-14T12:29:34.464Z,5.00
2023-05-14T12:30:34.363Z,2.00
2023-05-14T12:31:34.419Z,2.00
2023-05-14T12:32:34.436Z,4.90
2023-05-14T12:33:35.651Z,1.70
2023-05-14T12:34:35.941Z,2.10
2023-05-14T12:35:34.513Z,1.70
2023-05-14T12:36:34.263Z,1.00
2023-05-14T12:37:34.284Z,1.70
2023-05-14T12:38:34.238Z,1.30
2023-05-14T12:39:34.178Z,7.00
2023-05-14T12:40:34.498Z,5.30
2023-05-14T12:41:34.201Z,0.60
2023-05-14T12:42:34.208Z,3.30
2023-05-14T12:43:34.338Z,3.40
2023-05-14T12:44:34.230Z,1.10
2023-05-14T12:45:34.173Z,2.20
2023-05-14T12:46:34.240Z,2.40
2023-05-14T12:47:34.796Z,1.90
2023-05-14T12:48:34.145Z,1.90
2023-05-14T12:49:34.163Z,1.50
2023-05-14T12:50:34.180Z,1.40
2023-05-14T12:51:34.216Z,1.60
2023-05-14T12:52:38.322Z,1.30
2023-05-14T12:53:34.037Z,2.00
2023-05-14T12:54:34.321Z,1.10
2023-05-14T12:55:34.121Z,1.40
2023-05-14T12:56:34.002Z,1.40
2023-05-14T12:57:34.007Z,1.00
2023-05-14T12:58:33.952Z,2.70
2023-05-14T12:59:33.979Z,1.00
2023-05-14T13:00:34.047Z,2.40
2023-05-14T13:01:34.511Z,1.40
2023-05-14T13:02:34.013Z,1.80
2023-05-14T13:03:33.941Z,2.20
2023-05-14T13:04:34.093Z,0.80
2023-05-14T13:05:34.009Z,2.20
2023-05-14T13:06:33.898Z,1.30
2023-05-14T13:07:34.007Z,2.00
2023-05-14T13:08:34.188Z,1.30
2023-05-14T13:09:33.854Z,2.00
2023-05-14T13:10:33.884Z,2.10
2023-05-14T13:11:33.869Z,2.60
2023-05-14T13:12:33.827Z,5.00
2023-05-14T13:13:33.993Z,1.10
2023-05-14T13:14:33.904Z,2.90
2023-05-14T13:15:34.158Z,2.30
2023-05-14T13:16:34.434Z,1.50
2023-05-14T13:17:33.914Z,1.80
2023-05-14T13:18:33.819Z,1.60